Ride Results

Gundagai (04-04-2015)
Ride distance: 80.0 km

Outcomes - Gundagai (04-04-2015)
Division No. of Entries Retired / DNE Completed Withdrawn Ineligible V/O Percentage Completed
HW 12 - 10 1 - 1 83.33%
MW 34 - 28 1 - 5 82.35%
LW 27 - 23 2 - 2 85.19%
JN 6 - 4 - - 2 66.67%
Totals 79 - 65 4 - 10 82.28%
Results - Gundagai (04-04-2015)
No. Rider Horse Place Time Leg Speeds Total
Km/Hr
H/R bpm
Heavyweight
5 Cris Magnabosco Magna Contessa 1 5:09:00 17.1, 14.2 15.53 35, 44, 48 (Avg:46)
1 John Robertson Karabil Asis 2 (BC) 5:12:00 17.0, 14.0 15.38 42, 49, 48 (Avg:48)
33 Roy Barsby Dumaresq Buzz 3 5:14:10 14.1, 16.5 15.28 32, 39, 51 (Avg:45)
44 Jessica Dastani CJ 4 5:57:25 14.3, 12.5 13.43 29, 38, 43 (Avg:40)
11 Heidi Wade Yinbilliko Shaka Zulu 5 6:16:00 13.4, 12.1 12.77 41, 46, 48 (Avg:47)
26 Alan Mackinder Jezabelle Sweet Dreams 6 7:07:00 11.9, 10.6 11.24 36, 42, 38 (Avg:40)
31 Robert Catlin Bendora Rafiki 7 7:38:00 11.1, 9.9 10.48 38, 48, 48 (Avg:48)
30 Stuart Lymbery Aloha Typic 8 7:45:16 10.9, 9.7 10.32 31, 36, 47 (Avg:41)
67 Greg Chant San Ella Picasso 9 7:55:00 11.2, 9.1 10.11 34, 55, 58 (Avg:56)
53 Dean Hodkinson Lydia Te 10 8:21:00 9.0, 10.2 9.58 36, 43, 48 (Avg:45)
77 Jason Duff Karabil Niko Lame L2 0:00:00 13.0, 12.1 - 36, 39, 45 (Avg:42)
3 Jaymee Ferguson Duce Withdrawn L1 0:00:00 - - 29, 49 (Avg:49)
Middleweight
51 Emily Streckfuss Webbs Creek Starlight 1 (BC) 5:00:17 17.0, 15.0 15.98 32, 39, 49 (Avg:44)
68 Anita Ashby Lentara Park Heather 2 5:04:00 15.7, 15.7 15.79 36, 48, 56 (Avg:52)
15 Simon Bain Akifa Farras Ice 3 5:12:00 17.1, 13.9 15.38 32, 50, 49 (Avg:49)
21 Ben Hudson Cap Braveheart 4 5:24:00 14.6, 14.9 14.81 36, 37, 44 (Avg:40)
56 Gertraud Norton Scarlet Oaks Amica 5 5:28:00 17.1, 12.7 14.63 33, 38, 44 (Avg:41)
59 Jenny Shepheard Currowan Starlite 6 6:03:00 13.1, 13.2 13.22 37, 36, 37 (Avg:36)
6 John Symons Forest Dale Belle De Jour 7 6:11:00 15.4, 11.1 12.94 32, 46, 54 (Avg:50)
78 Bev Turner Jelignite Jack 8 6:15:00 13.5, 12.1 12.80 32, 45, 49 (Avg:47)
63 Kayte Barnard Matta Mia L'Atim 9 6:45:00 11.9, 11.7 11.85 34, 44, 48 (Avg:46)
41 Linda Tanian Castlebar Cadabra 10 7:07:00 11.7, 10.8 11.24 32, 42, 46 (Avg:44)
42 Sharyn Coulston Castlebar Belair 11 7:07:22 11.6, 10.8 11.23 30, 41, 38 (Avg:39)
43 Ellen Vine Castlebar Guardian 12 7:07:28 11.6, 10.8 11.23 34, 41, 38 (Avg:39)
72 Jeremy Banwell Blake's Heaven Caruso 13 7:10:00 11.9, 10.4 11.16 29, 44, 41 (Avg:42)
55 Fiona Meller Malu Vale Embers 14 7:29:00 11.7, 9.7 10.69 31, 37, 57 (Avg:47)
54 David Player Mirakhani Saa'meer 14 7:29:00 11.1, 10.3 10.69 32, 53, 60 (Avg:56)
9 Gail Pound Aloha Farid 14 7:29:00 10.8, 10.5 10.69 35, 48, 49 (Avg:48)
38 Louise McCormack Kintamani Silver Eclipse 17 7:29:55 10.8, 10.5 10.67 33, 41, 56 (Avg:48)
49 Talea Hasko-Stewart Itty Bitty Angel 18 7:31:00 11.1, 10.2 10.64 30, 37, 47 (Avg:42)
75 Lauren Stevenson Blake's Heaven Summer Reign 18 7:31:00 11.1, 10.2 10.64 34, 46, 35 (Avg:40)
40 Karen Rhodes Stratfield Ghayth 20 7:38:00 11.1, 9.9 10.48 31, 36, 40 (Avg:38)
27 Michaela Araldi Girilambone Amahl 21 7:43:00 9.8, 10.9 10.37 36, 41, 48 (Avg:44)
25 Andrew Mackinder Annaliisa'ar 21 7:43:00 9.8, 10.9 10.37 29, 38, 44 (Avg:41)
28 Anne Lymbery Garonne Park Walker 23 7:45:32 10.9, 9.7 10.31 33, 51, 60 (Avg:55)
18 Kimberley Temmerman Oso Ngaire 24 7:57:00 10.0, 10.0 10.06 35, 42, 44 (Avg:43)
7 Roy Counsell Espirit Sherwood 25 8:06:00 10.6, 9.1 9.88 38, 51, 56 (Avg:53)
57 Alan Lindsay Kintamani Silver Motif 25 8:06:00 11.1, 8.8 9.88 30, 45, 46 (Avg:45)
45 Colleen Clancy Dara Park Luv In The Stars 27 8:21:00 9.7, 9.4 9.58 36, 51, 54 (Avg:52)
47 Rebecca Lees Argon 27 8:21:00 9.7, 9.4 9.58 32, 36, 44 (Avg:40)
65 Ian Curtis Blake's Heaven Summer Wind Lame L2 0:00:00 15.7, 15.7 - 32, 44, 46 (Avg:45)
13 Brett Willis Carlwood Park Austen Lame L2 0:00:00 16.7, 12.4 - 29, 44, 43 (Avg:43)
12 Lindsay Hine Harmere Platinum Melas Lame L1 0:00:00 13.2 - 30, 44 (Avg:44)
4 Ava Pellizzari Zzariava Valentino Withdrawn L1 0:00:00 - - 29, 54 (Avg:54)
61 Rowena Robinson Karumba Nazrani Lame L1 0:00:00 10.3 - 31, 37 (Avg:37)
69 Alamdar Dastani Malana Lame P/R 0:00:00 - - 49
Lightweight
2 Amanda Apperley Jon De Le Nissan 1 (BC) 4:57:00 17.6, 14.9 16.16 30, 48, 46 (Avg:47)
64 Kali Curtis Blake's Heaven Carousel 2 5:04:00 15.7, 15.7 15.79 30, 46, 51 (Avg:48)
70 Adeline Gibson Blake's Heaven Venus 2 5:04:00 15.7, 15.7 15.79 37, 42, 50 (Avg:46)
74 Fia Hasko-Stewart Brookleigh Shiralee 2 5:04:00 15.7, 15.7 15.79 37, 42, 41 (Avg:41)
14 Leanne Holz Jamil Razah Gazelle 5 5:35:00 16.7, 12.4 14.33 30, 55, 45 (Avg:50)
48 Elodie LeLabourier Blake's Heaven Angelico 6 5:57:34 14.3, 12.5 13.42 33, 45, 50 (Avg:47)
17 Sorsha Stuart-Rokvic Candynae 7 6:15:00 13.6, 12.0 12.80 37, 44, 56 (Avg:50)
10 Vetea Facchini Trigger 8 6:16:00 13.4, 12.1 12.77 37, 43, 40 (Avg:41)
24 Jodi Dewick Wickwood Aesiras 9 6:22:00 13.0, 12.1 12.57 31, 41, 44 (Avg:42)
34 April Newman Tarnette 9 6:22:00 13.1, 11.9 12.57 28, 36, 40 (Avg:38)
62 Mary Hollingsworth Henley Farm Hunaak 11 6:45:00 11.9, 11.7 11.85 36, 46, 45 (Avg:45)
8 Faith Robinson Arabesque Winning Streak 12 7:24:00 11.6, 10.0 10.81 32, 42, 58 (Avg:50)
37 Victoria Bice Raymar Aden 13 7:25:05 11.0, 10.5 10.78 27, 40, 40 (Avg:40)
29 Sarah Lymbery Yerorlonga Spirit 14 7:45:26 10.9, 9.7 10.31 32, 46, 48 (Avg:47)
16 Kira Whitehead Oso Elycian 15 7:54:00 10.2, 10.0 10.13 28, 44, 42 (Avg:43)
71 Bianca Whitehead El Castano Mirada 15 7:54:00 10.2, 10.0 10.13 39, 43, 60 (Avg:51)
32 Sally Fenner Django Unchained 17 7:55:00 10.4, 9.7 10.11 34, 39, 40 (Avg:39)
39 Elaine Kirby Turingal Park Nicholas 17 7:55:00 10.3, 9.8 10.11 32, 41, 44 (Avg:42)
35 Shan Symons Dashanda Serene 17 7:55:00 10.1, 10.0 10.11 32, 36, 37 (Avg:36)
36 Emma Broome Raymar Henry 20 7:55:52 10.0, 10.0 10.09 33, 41, 48 (Avg:44)
20 Allix Jones Al Marah Gypsy Red 21 7:57:00 10.0, 10.0 10.06 33, 46, 49 (Avg:47)
58 Jessica Long Kintamani Rose Maree 22 8:06:00 11.0, 8.9 9.88 37, 54, 49 (Avg:51)
52 Kristie Wright Coolahlee Park Wahsha 23 8:21:00 9.0, 10.2 9.58 32, 38, 42 (Avg:40)
73 Cathy Banwell Wantley Kaliph Lame L1 0:00:00 15.7 - 30, 44 (Avg:44)
66 Pamela Cox Aloha Delilah Withdrawn L1 0:00:00 - - 38, 39 (Avg:39)
50 Louise Stevens Ellen Grove Shantelle Lame L1 0:00:00 17.6 - 29, 46 (Avg:46)
22 Wendy Jones AM Reigning Bianca Withdrawn P/R 0:00:00 - - 33
Junior
79 Gabrielle Worth Douglas 1 (BC) 6:34:00 13.0, 11.4 12.18 30, 45, 60 (Avg:52)
76 Celia Hodgson Blake's Heaven Dubonnet 2 7:31:00 11.1, 10.2 10.64 36, 34, 40 (Avg:37)
60 Levi Robinson Karumba Beamish 3 8:06:00 10.3, 9.4 9.88 31, 37, 40 (Avg:38)
46 Jessica Banaszczyk Seraphic Park Oliver Twist 4 8:21:00 9.7, 9.4 9.58 30, 43, 44 (Avg:43)
19 Stacey Clarke Oso Bandit Lame L2 0:00:00 14.6, 14.9 - 36, 42, 56 (Avg:49)
23 Tahnaya Mercieca Malleegrove Qaarma Heart Rate L2 0:00:00 14.6, 14.9 - 33, 40, 70 (Avg:55)